sensor_id;sensor_type;location;lat;lon;timestamp;P1;durP1;ratioP1;P2;durP2;ratioP2
38581;SDS011;24349;53.720;10.014;2022-10-10T07:53:12;8.85;;;3.88;;
38581;SDS011;24349;53.720;10.014;2022-10-10T07:55:38;7.15;;;3.00;;
38581;SDS011;24349;53.720;10.014;2022-10-10T07:58:04;7.07;;;3.38;;
38581;SDS011;24349;53.720;10.014;2022-10-10T08:00:31;7.60;;;3.17;;
38581;SDS011;24349;53.720;10.014;2022-10-10T08:02:57;7.97;;;3.22;;
38581;SDS011;24349;53.720;10.014;2022-10-10T08:05:23;6.47;;;3.45;;
38581;SDS011;24349;53.720;10.014;2022-10-10T08:07:48;7.78;;;3.10;;
38581;SDS011;24349;53.720;10.014;2022-10-10T08:10:14;7.18;;;3.10;;
38581;SDS011;24349;53.720;10.014;2022-10-10T08:12:40;6.78;;;2.80;;
38581;SDS011;24349;53.720;10.014;2022-10-10T08:15:06;7.35;;;3.42;;
38581;SDS011;24349;53.720;10.014;2022-10-10T08:17:32;7.28;;;3.20;;
38581;SDS011;24349;53.720;10.014;2022-10-10T08:19:58;8.63;;;3.30;;
38581;SDS011;24349;53.720;10.014;2022-10-10T08:22:23;6.75;;;2.90;;
38581;SDS011;24349;53.720;10.014;2022-10-10T08:24:49;5.88;;;2.83;;
38581;SDS011;24349;53.720;10.014;2022-10-10T08:27:15;8.02;;;2.92;;
38581;SDS011;24349;53.720;10.014;2022-10-10T08:29:41;6.25;;;2.50;;
38581;SDS011;24349;53.720;10.014;2022-10-10T08:32:07;7.20;;;2.78;;
38581;SDS011;24349;53.720;10.014;2022-10-10T08:34:33;7.68;;;2.72;;
38581;SDS011;24349;53.720;10.014;2022-10-10T08:36:59;7.47;;;2.78;;
38581;SDS011;24349;53.720;10.014;2022-10-10T08:39:24;7.57;;;2.63;;
38581;SDS011;24349;53.720;10.014;2022-10-10T08:41:51;6.22;;;2.90;;
38581;SDS011;24349;53.720;10.014;2022-10-10T08:49:43;6.30;;;3.13;;
38581;SDS011;24349;53.720;10.014;2022-10-10T08:54:56;6.72;;;2.70;;
38581;SDS011;24349;53.720;10.014;2022-10-10T08:59:53;7.95;;;2.90;;
38581;SDS011;24349;53.720;10.014;2022-10-10T09:02:26;7.00;;;2.80;;
38581;SDS011;24349;53.720;10.014;2022-10-10T09:04:58;6.38;;;2.42;;
38581;SDS011;24349;53.720;10.014;2022-10-10T09:10:15;6.90;;;2.65;;
38581;SDS011;24349;53.720;10.014;2022-10-10T09:15:25;7.40;;;2.75;;
38581;SDS011;24349;53.720;10.014;2022-10-10T09:18:04;7.82;;;2.67;;
38581;SDS011;24349;53.720;10.014;2022-10-10T09:23:50;8.43;;;2.70;;
38581;SDS011;24349;53.720;10.014;2022-10-10T09:26:39;5.60;;;2.67;;
38581;SDS011;24349;53.720;10.014;2022-10-10T09:29:29;5.50;;;2.22;;
38581;SDS011;24349;53.720;10.014;2022-10-10T09:32:13;6.78;;;2.83;;
38581;SDS011;24349;53.720;10.014;2022-10-10T09:37:29;6.32;;;2.67;;
38581;SDS011;24349;53.720;10.014;2022-10-10T09:42:36;7.38;;;2.63;;
38581;SDS011;24349;53.720;10.014;2022-10-10T09:45:17;5.50;;;2.33;;
38581;SDS011;24349;53.720;10.014;2022-10-10T09:47:43;5.95;;;2.55;;
38581;SDS011;24349;53.720;10.014;2022-10-10T09:50:13;6.95;;;2.65;;
38581;SDS011;24349;53.720;10.014;2022-10-10T09:52:39;6.85;;;2.47;;
38581;SDS011;24349;53.720;10.014;2022-10-10T09:55:20;6.00;;;2.50;;
38581;SDS011;24349;53.720;10.014;2022-10-10T09:57:47;8.38;;;2.97;;
38581;SDS011;24349;53.720;10.014;2022-10-10T10:03:02;6.93;;;2.67;;
38581;SDS011;24349;53.720;10.014;2022-10-10T10:05:36;7.78;;;3.05;;
38581;SDS011;24349;53.720;10.014;2022-10-10T10:08:02;7.28;;;2.65;;
38581;SDS011;24349;53.720;10.014;2022-10-10T10:10:28;7.28;;;2.80;;
38581;SDS011;24349;53.720;10.014;2022-10-10T10:12:59;6.43;;;3.00;;
38581;SDS011;24349;53.720;10.014;2022-10-10T10:15:30;6.60;;;2.78;;
38581;SDS011;24349;53.720;10.014;2022-10-10T10:18:09;7.55;;;2.92;;
38581;SDS011;24349;53.720;10.014;2022-10-10T10:20:41;9.40;;;3.40;;
38581;SDS011;24349;53.720;10.014;2022-10-10T10:23:21;7.70;;;2.80;;
38581;SDS011;24349;53.720;10.014;2022-10-10T10:25:58;8.30;;;2.90;;
38581;SDS011;24349;53.720;10.014;2022-10-10T10:28:43;7.05;;;2.65;;
38581;SDS011;24349;53.720;10.014;2022-10-10T10:34:05;7.88;;;3.15;;
38581;SDS011;24349;53.720;10.014;2022-10-10T10:36:42;7.88;;;3.45;;
38581;SDS011;24349;53.720;10.014;2022-10-10T10:44:57;6.00;;;2.85;;
38581;SDS011;24349;53.720;10.014;2022-10-10T10:50:39;6.32;;;2.80;;
38581;SDS011;24349;53.720;10.014;2022-10-10T10:58:37;6.65;;;2.42;;
38581;SDS011;24349;53.720;10.014;2022-10-10T11:03:57;6.15;;;2.72;;
38581;SDS011;24349;53.720;10.014;2022-10-10T11:09:34;8.45;;;3.38;;
38581;SDS011;24349;53.720;10.014;2022-10-10T11:12:15;9.73;;;3.10;;
38581;SDS011;24349;53.720;10.014;2022-10-10T11:15:14;5.65;;;2.65;;
38581;SDS011;24349;53.720;10.014;2022-10-10T11:17:50;8.85;;;3.10;;
38581;SDS011;24349;53.720;10.014;2022-10-10T11:20:44;7.80;;;2.63;;
38581;SDS011;24349;53.720;10.014;2022-10-10T11:28:39;8.98;;;3.05;;
38581;SDS011;24349;53.720;10.014;2022-10-10T11:31:12;7.53;;;2.63;;
38581;SDS011;24349;53.720;10.014;2022-10-10T11:33:43;9.40;;;2.85;;
38581;SDS011;24349;53.720;10.014;2022-10-10T11:36:17;7.75;;;3.05;;
38581;SDS011;24349;53.720;10.014;2022-10-10T11:38:48;5.85;;;2.70;;
38581;SDS011;24349;53.720;10.014;2022-10-10T11:41:17;6.40;;;2.60;;
38581;SDS011;24349;53.720;10.014;2022-10-10T11:43:48;6.20;;;2.67;;
38581;SDS011;24349;53.720;10.014;2022-10-10T11:48:54;8.95;;;2.65;;
38581;SDS011;24349;53.720;10.014;2022-10-10T11:51:59;6.32;;;2.47;;
38581;SDS011;24349;53.720;10.014;2022-10-10T11:54:45;6.55;;;2.70;;
38581;SDS011;24349;53.720;10.014;2022-10-10T11:57:37;6.53;;;2.72;;
38581;SDS011;24349;53.720;10.014;2022-10-10T12:00:10;8.15;;;2.70;;
38581;SDS011;24349;53.720;10.014;2022-10-10T12:02:38;6.05;;;2.40;;
38581;SDS011;24349;53.720;10.014;2022-10-10T12:05:05;10.10;;;2.88;;
38581;SDS011;24349;53.720;10.014;2022-10-10T12:13:26;9.48;;;2.75;;
38581;SDS011;24349;53.720;10.014;2022-10-10T12:15:50;7.25;;;2.40;;
38581;SDS011;24349;53.720;10.014;2022-10-10T12:18:22;6.47;;;2.67;;
38581;SDS011;24349;53.720;10.014;2022-10-10T12:20:49;6.97;;;2.20;;
38581;SDS011;24349;53.720;10.014;2022-10-10T12:23:34;6.38;;;2.60;;
38581;SDS011;24349;53.720;10.014;2022-10-10T12:26:01;6.90;;;2.47;;
38581;SDS011;24349;53.720;10.014;2022-10-10T12:28:34;8.98;;;2.80;;
38581;SDS011;24349;53.720;10.014;2022-10-10T12:31:25;7.97;;;3.17;;
38581;SDS011;24349;53.720;10.014;2022-10-10T12:42:22;6.57;;;3.25;;
38581;SDS011;24349;53.720;10.014;2022-10-10T12:44:19;7.03;;;3.03;;
38581;SDS011;24349;53.720;10.014;2022-10-10T12:49:50;6.97;;;2.58;;
38581;SDS011;24349;53.720;10.014;2022-10-10T12:55:16;9.45;;;2.80;;
38581;SDS011;24349;53.720;10.014;2022-10-10T12:57:47;7.50;;;3.00;;
38581;SDS011;24349;53.720;10.014;2022-10-10T13:02:41;7.25;;;3.15;;
38581;SDS011;24349;53.720;10.014;2022-10-10T13:05:09;5.75;;;2.70;;
38581;SDS011;24349;53.720;10.014;2022-10-10T13:07:39;8.23;;;3.10;;
38581;SDS011;24349;53.720;10.014;2022-10-10T13:10:08;6.75;;;3.00;;
38581;SDS011;24349;53.720;10.014;2022-10-10T13:13:24;15.73;;;3.75;;
38581;SDS011;24349;53.720;10.014;2022-10-10T13:15:55;9.75;;;3.33;;
38581;SDS011;24349;53.720;10.014;2022-10-10T13:18:31;5.10;;;2.50;;
38581;SDS011;24349;53.720;10.014;2022-10-10T13:21:12;8.02;;;3.38;;
38581;SDS011;24349;53.720;10.014;2022-10-10T13:23:39;8.82;;;3.00;;
38581;SDS011;24349;53.720;10.014;2022-10-10T13:32:00;9.93;;;3.10;;
38581;SDS011;24349;53.720;10.014;2022-10-10T13:34:32;12.38;;;3.85;;
38581;SDS011;24349;53.720;10.014;2022-10-10T13:37:00;8.68;;;2.95;;
38581;SDS011;24349;53.720;10.014;2022-10-10T13:39:28;8.25;;;3.30;;
38581;SDS011;24349;53.720;10.014;2022-10-10T13:41:56;10.73;;;3.80;;
38581;SDS011;24349;53.720;10.014;2022-10-10T13:44:44;10.52;;;3.90;;
38581;SDS011;24349;53.720;10.014;2022-10-10T13:50:21;10.40;;;3.10;;
38581;SDS011;24349;53.720;10.014;2022-10-10T13:55:47;8.10;;;3.40;;
38581;SDS011;24349;53.720;10.014;2022-10-10T13:58:13;8.32;;;3.67;;
38581;SDS011;24349;53.720;10.014;2022-10-10T14:00:39;10.35;;;3.30;;
38581;SDS011;24349;53.720;10.014;2022-10-10T14:03:12;7.15;;;3.30;;
38581;SDS011;24349;53.720;10.014;2022-10-10T14:05:41;6.85;;;3.10;;
38581;SDS011;24349;53.720;10.014;2022-10-10T14:08:16;9.27;;;3.55;;
38581;SDS011;24349;53.720;10.014;2022-10-10T14:10:54;9.65;;;3.08;;
38581;SDS011;24349;53.720;10.014;2022-10-10T14:13:23;9.18;;;3.30;;
38581;SDS011;24349;53.720;10.014;2022-10-10T14:15:49;10.68;;;3.83;;
38581;SDS011;24349;53.720;10.014;2022-10-10T14:18:16;9.30;;;3.55;;
38581;SDS011;24349;53.720;10.014;2022-10-10T14:20:44;8.02;;;3.40;;
38581;SDS011;24349;53.720;10.014;2022-10-10T14:23:10;8.43;;;3.47;;
38581;SDS011;24349;53.720;10.014;2022-10-10T14:25:37;11.07;;;3.60;;
38581;SDS011;24349;53.720;10.014;2022-10-10T14:28:18;8.70;;;3.15;;
38581;SDS011;24349;53.720;10.014;2022-10-10T14:30:46;10.00;;;3.72;;
38581;SDS011;24349;53.720;10.014;2022-10-10T14:33:12;7.05;;;3.88;;
38581;SDS011;24349;53.720;10.014;2022-10-10T14:35:40;9.07;;;3.80;;
38581;SDS011;24349;53.720;10.014;2022-10-10T14:38:07;8.35;;;3.33;;
38581;SDS011;24349;53.720;10.014;2022-10-10T14:40:34;9.52;;;3.45;;
38581;SDS011;24349;53.720;10.014;2022-10-10T14:43:00;9.63;;;3.83;;
38581;SDS011;24349;53.720;10.014;2022-10-10T14:45:26;8.95;;;3.63;;
38581;SDS011;24349;53.720;10.014;2022-10-10T14:47:52;9.48;;;3.40;;
38581;SDS011;24349;53.720;10.014;2022-10-10T14:50:19;8.13;;;3.75;;
38581;SDS011;24349;53.720;10.014;2022-10-10T14:52:47;8.55;;;3.65;;
38581;SDS011;24349;53.720;10.014;2022-10-10T14:55:13;8.82;;;3.97;;
38581;SDS011;24349;53.720;10.014;2022-10-10T14:57:39;10.25;;;4.05;;
38581;SDS011;24349;53.720;10.014;2022-10-10T15:00:06;10.02;;;3.15;;
